Horse Cave, Kentucky
Current Conditions -  °F | °C
As of 10:15 AM on Tuesday 21 Oct 2014 (Local Time) from KGLW Reporting Station
Overcast Overcast  
Wind Chill: 60°   Ceiling: 5500
Heat Index: 60°   Visibility: 10mi
Dew Point: 48°   Wind: 3mph
Humidity: 65%   Direction: 350°N
Pressure: 30.07"   Gusts: NA
Location:  37.18°N, 85.91°W
Report Text: KGLW 211515Z AUTO 35003KT 10SM OVC055 15/09 A3007 RMK AO2 T01530088
Loading
Personal Weather Stations






























Interactive Weather Map
Tropical Storm Tracking
New forecast layout! Learn more

10-Day Weather Forecast

Advertisements
Track Severe Weather on mobile